createdAt,value
2019-02-10T00:00:21.777Z,2.93
2019-02-10T00:02:48.816Z,2.91
2019-02-10T00:05:16.732Z,2.97
2019-02-10T00:07:43.281Z,2.88
2019-02-10T00:10:09.851Z,2.95
2019-02-10T00:12:36.500Z,2.84
2019-02-10T00:15:06.507Z,2.86
2019-02-10T00:17:33.294Z,2.76
2019-02-10T00:19:59.975Z,2.85
2019-02-10T00:22:26.587Z,2.81
2019-02-10T00:24:53.200Z,2.73
2019-02-10T00:27:19.895Z,2.76
2019-02-10T00:29:46.505Z,2.75
2019-02-10T00:32:13.145Z,2.90
2019-02-10T00:34:39.951Z,2.86
2019-02-10T00:37:06.564Z,2.97
2019-02-10T00:39:33.154Z,2.90
2019-02-10T00:42:02.938Z,2.95
2019-02-10T00:44:29.504Z,2.92
2019-02-10T00:46:56.055Z,2.88
2019-02-10T00:50:19.200Z,2.86
2019-02-10T00:52:45.819Z,2.91
2019-02-10T00:55:12.451Z,2.90
2019-02-10T00:57:39.134Z,2.96
2019-02-10T01:00:08.122Z,3.01
2019-02-10T01:02:34.751Z,3.05
2019-02-10T01:05:01.327Z,3.04
2019-02-10T01:07:27.974Z,3.05
2019-02-10T01:09:55.732Z,2.96
2019-02-10T01:12:22.423Z,2.87
2019-02-10T01:14:48.963Z,2.97
2019-02-10T01:17:15.541Z,2.92
2019-02-10T01:19:42.155Z,2.90
2019-02-10T01:22:08.703Z,2.99
2019-02-10T01:24:35.285Z,2.88
2019-02-10T01:27:01.885Z,2.96
2019-02-10T01:29:28.441Z,2.90
2019-02-10T01:31:55.142Z,2.82
2019-02-10T01:34:22.131Z,2.82
2019-02-10T01:36:49.976Z,2.91
2019-02-10T01:39:17.762Z,3.09
2019-02-10T01:41:44.337Z,2.99
2019-02-10T01:44:10.938Z,3.04
2019-02-10T01:46:37.692Z,2.94
2019-02-10T01:49:04.275Z,2.97
2019-02-10T01:51:33.689Z,3.02
2019-02-10T01:54:00.334Z,3.01
2019-02-10T01:56:26.888Z,2.95
2019-02-10T01:58:53.443Z,2.86
2019-02-10T02:01:20.008Z,2.89
2019-02-10T02:03:46.615Z,2.75
2019-02-10T02:06:13.235Z,2.77
2019-02-10T02:08:39.831Z,2.80
2019-02-10T02:11:06.701Z,2.74
2019-02-10T02:13:33.278Z,2.79
2019-02-10T02:15:59.873Z,2.79
2019-02-10T02:18:26.527Z,2.81
2019-02-10T02:20:53.119Z,2.87
2019-02-10T02:23:26.016Z,2.81
2019-02-10T02:25:52.596Z,2.83
2019-02-10T02:28:19.167Z,2.87
2019-02-10T02:30:45.775Z,2.83
2019-02-10T02:33:12.444Z,2.85
2019-02-10T02:35:39.193Z,2.88
2019-02-10T02:38:05.857Z,2.90
2019-02-10T02:40:34.336Z,2.70
2019-02-10T02:43:00.992Z,2.65
2019-02-10T02:45:27.531Z,2.69
2019-02-10T02:47:54.089Z,2.81
2019-02-10T02:50:20.779Z,2.70
2019-02-10T02:52:47.398Z,2.55
2019-02-10T02:55:15.296Z,2.74
2019-02-10T02:57:45.185Z,2.71
2019-02-10T03:00:11.755Z,2.81
2019-02-10T03:02:41.540Z,2.89
2019-02-10T03:05:09.178Z,2.82
2019-02-10T03:07:35.734Z,2.79
2019-02-10T03:10:05.339Z,2.72
2019-02-10T03:12:31.918Z,2.83
2019-02-10T03:14:58.474Z,2.88
2019-02-10T03:17:25.080Z,2.96
2019-02-10T03:19:51.651Z,3.09
2019-02-10T03:22:18.236Z,3.15
2019-02-10T03:24:44.811Z,3.23
2019-02-10T03:27:11.408Z,3.35
2019-02-10T03:29:38.091Z,3.24
2019-02-10T03:32:04.712Z,3.30
2019-02-10T03:34:31.306Z,3.26
2019-02-10T03:36:57.917Z,3.30
2019-02-10T03:39:24.532Z,3.38
2019-02-10T03:41:51.106Z,3.42
2019-02-10T03:44:17.689Z,3.42
2019-02-10T03:46:47.209Z,3.26
2019-02-10T03:49:13.819Z,3.39
2019-02-10T03:51:40.385Z,3.41
2019-02-10T03:54:06.996Z,3.41
2019-02-10T03:56:33.592Z,3.39
2019-02-10T03:59:00.291Z,3.41
2019-02-10T04:01:28.086Z,3.44
2019-02-10T04:03:57.902Z,3.28
2019-02-10T04:06:24.517Z,3.31
2019-02-10T04:08:51.056Z,3.19
2019-02-10T04:11:17.648Z,3.10
2019-02-10T04:13:44.336Z,3.23
2019-02-10T04:16:10.906Z,3.19
2019-02-10T04:18:37.540Z,3.08
2019-02-10T04:21:04.141Z,3.15
2019-02-10T04:23:30.700Z,3.04
2019-02-10T04:25:57.443Z,3.02
2019-02-10T04:28:24.026Z,3.11
2019-02-10T04:30:50.680Z,3.07
2019-02-10T04:33:17.326Z,3.08
2019-02-10T04:35:43.906Z,3.23
2019-02-10T04:38:10.548Z,3.22
2019-02-10T04:40:37.110Z,3.32
2019-02-10T04:43:03.696Z,3.18
2019-02-10T04:45:30.309Z,3.35
2019-02-10T04:47:56.876Z,3.33
2019-02-10T04:50:23.463Z,3.32
2019-02-10T04:52:50.059Z,3.36
2019-02-10T04:55:16.615Z,3.17
2019-02-10T04:57:43.219Z,3.27
2019-02-10T05:00:09.859Z,3.08
2019-02-10T05:02:36.611Z,3.16
2019-02-10T05:05:03.517Z,3.05
2019-02-10T05:07:30.128Z,3.01
2019-02-10T05:09:56.732Z,3.10
2019-02-10T05:12:23.340Z,3.02
2019-02-10T05:14:49.993Z,2.96
2019-02-10T05:17:16.549Z,2.86
2019-02-10T05:19:43.196Z,2.75
2019-02-10T05:22:09.795Z,2.69
2019-02-10T05:24:36.349Z,2.71
2019-02-10T05:27:02.942Z,2.78
2019-02-10T05:29:29.561Z,2.86
2019-02-10T05:31:56.187Z,3.02
2019-02-10T05:34:22.843Z,2.99
2019-02-10T05:36:49.437Z,2.98
2019-02-10T05:39:16.044Z,2.89
2019-02-10T05:41:42.605Z,2.95
2019-02-10T05:44:09.212Z,3.05
2019-02-10T05:46:35.857Z,3.04
2019-02-10T05:49:02.400Z,3.05
2019-02-10T05:51:29.049Z,3.04
2019-02-10T05:53:55.721Z,2.97
2019-02-10T05:56:22.288Z,2.99
2019-02-10T05:58:48.877Z,3.03
2019-02-10T06:01:21.215Z,2.94
2019-02-10T06:03:47.850Z,2.84
2019-02-10T06:06:14.500Z,2.95
2019-02-10T06:08:41.110Z,3.01
2019-02-10T06:11:07.703Z,2.99
2019-02-10T06:13:34.277Z,3.03
2019-02-10T06:16:00.957Z,3.04
2019-02-10T06:18:27.626Z,2.99
2019-02-10T06:20:54.240Z,2.91
2019-02-10T06:23:20.903Z,2.75
2019-02-10T06:25:47.454Z,2.89
2019-02-10T06:28:14.098Z,2.76
2019-02-10T06:30:40.711Z,2.76
2019-02-10T06:33:07.343Z,2.71
2019-02-10T06:35:33.912Z,2.82
2019-02-10T06:38:00.500Z,2.81
2019-02-10T06:40:27.127Z,2.86
2019-02-10T06:42:53.702Z,2.59
2019-02-10T06:45:20.270Z,2.36
2019-02-10T06:47:46.864Z,2.15
2019-02-10T06:50:13.461Z,1.95
2019-02-10T06:52:40.077Z,2.13
2019-02-10T06:55:08.382Z,2.38
2019-02-10T06:57:34.991Z,2.29
2019-02-10T07:00:03.479Z,1.79
2019-02-10T07:02:38.427Z,1.61
2019-02-10T07:05:09.428Z,1.65
2019-02-10T07:07:37.085Z,1.61
2019-02-10T07:10:06.409Z,1.55
2019-02-10T07:12:39.875Z,1.57
2019-02-10T07:15:12.375Z,1.35
2019-02-10T07:17:41.852Z,1.48
2019-02-10T07:20:14.136Z,1.61
2019-02-10T07:22:40.766Z,1.52
2019-02-10T07:25:13.140Z,1.69
2019-02-10T07:27:39.994Z,1.81
2019-02-10T07:30:07.770Z,2.10
2019-02-10T07:32:40.123Z,2.09
2019-02-10T07:35:12.475Z,2.14
2019-02-10T07:37:44.835Z,2.15
2019-02-10T07:40:15.254Z,2.34
2019-02-10T07:42:47.559Z,2.37
2019-02-10T07:45:19.974Z,2.59
2019-02-10T07:47:52.398Z,2.85
2019-02-10T07:50:26.664Z,2.87
2019-02-10T07:52:59.012Z,2.79
2019-02-10T07:55:29.425Z,2.94
2019-02-10T07:58:00.959Z,3.20
2019-02-10T08:00:32.626Z,3.33
2019-02-10T08:03:06.870Z,3.64
2019-02-10T08:05:39.317Z,3.83
2019-02-10T08:08:11.728Z,4.00
2019-02-10T08:10:42.260Z,4.10
2019-02-10T08:13:14.709Z,4.21
2019-02-10T08:15:45.131Z,4.34
2019-02-10T08:18:17.471Z,4.52
2019-02-10T08:20:47.878Z,4.45
2019-02-10T08:23:20.283Z,4.59
2019-02-10T08:25:50.657Z,4.71
2019-02-10T08:28:23.034Z,4.75
2019-02-10T08:30:53.746Z,4.78
2019-02-10T08:33:26.155Z,5.00
2019-02-10T08:35:58.517Z,5.10
2019-02-10T08:38:28.922Z,5.17
2019-02-10T08:41:00.577Z,5.28
2019-02-10T08:43:32.342Z,5.25
2019-02-10T08:46:04.754Z,5.42
2019-02-10T08:48:35.355Z,5.52
2019-02-10T08:51:09.530Z,5.53
2019-02-10T08:53:36.587Z,5.57
2019-02-10T08:56:06.256Z,5.53
2019-02-10T08:58:32.889Z,5.73
2019-02-10T09:00:59.514Z,5.82
2019-02-10T09:03:26.126Z,6.01
2019-02-10T09:05:55.978Z,6.09
2019-02-10T09:08:22.668Z,6.08
2019-02-10T09:10:50.209Z,5.97
2019-02-10T09:13:16.931Z,6.18
2019-02-10T09:15:43.520Z,6.04
2019-02-10T09:18:10.112Z,6.20
2019-02-10T09:20:36.796Z,6.35
2019-02-10T09:23:03.450Z,6.40
2019-02-10T09:26:26.327Z,6.49
2019-02-10T09:28:52.992Z,6.56
2019-02-10T09:31:19.667Z,6.79
2019-02-10T09:33:46.282Z,6.80
2019-02-10T09:36:12.872Z,6.88
2019-02-10T09:38:39.740Z,6.94
2019-02-10T09:41:06.499Z,7.02
2019-02-10T09:43:33.219Z,7.15
2019-02-10T09:45:59.864Z,7.19
2019-02-10T09:48:26.465Z,7.08
2019-02-10T09:50:53.088Z,7.06
2019-02-10T09:53:19.722Z,7.22
2019-02-10T09:55:46.375Z,7.32
2019-02-10T09:58:15.724Z,7.40
2019-02-10T10:00:42.301Z,7.34
2019-02-10T10:03:08.979Z,7.51
2019-02-10T10:05:35.554Z,7.72
2019-02-10T10:08:02.127Z,7.85
2019-02-10T10:10:28.979Z,7.89
2019-02-10T10:12:55.534Z,8.05
2019-02-10T10:15:22.164Z,7.94
2019-02-10T10:17:48.771Z,7.93
2019-02-10T10:20:17.326Z,8.13
2019-02-10T10:22:43.943Z,8.22
2019-02-10T10:25:10.558Z,8.16
2019-02-10T10:27:37.294Z,8.30
2019-02-10T10:30:09.638Z,8.39
2019-02-10T10:32:39.077Z,8.47
2019-02-10T10:35:06.638Z,8.56
2019-02-10T10:37:33.440Z,8.67
2019-02-10T10:40:00.012Z,8.59
2019-02-10T10:42:26.747Z,8.53
2019-02-10T10:44:53.306Z,8.59
2019-02-10T10:47:19.890Z,8.62
2019-02-10T10:49:46.520Z,8.55
2019-02-10T10:52:13.130Z,8.57
2019-02-10T10:54:42.842Z,8.45
2019-02-10T10:57:08.422Z,8.46
2019-02-10T10:59:35.004Z,8.44
2019-02-10T11:02:03.584Z,8.49
2019-02-10T11:04:30.263Z,8.50
2019-02-10T11:06:56.827Z,8.66
2019-02-10T11:09:23.457Z,8.68
2019-02-10T11:11:51.883Z,8.72
2019-02-10T11:14:18.663Z,8.68
2019-02-10T11:16:45.300Z,8.71
2019-02-10T11:19:11.895Z,8.62
2019-02-10T11:21:38.557Z,8.53
2019-02-10T11:24:05.187Z,8.71
2019-02-10T11:26:31.818Z,8.86
2019-02-10T11:28:58.594Z,8.92
2019-02-10T11:31:25.252Z,8.90
2019-02-10T11:33:51.883Z,8.99
2019-02-10T11:36:18.519Z,9.06
2019-02-10T11:38:45.148Z,8.99
2019-02-10T11:41:11.815Z,9.11
2019-02-10T11:43:38.605Z,9.19
2019-02-10T11:46:05.388Z,9.32
2019-02-10T11:48:31.997Z,9.27
2019-02-10T11:50:58.618Z,9.45
2019-02-10T11:53:25.189Z,9.30
2019-02-10T11:56:48.427Z,9.21
2019-02-10T11:59:15.121Z,9.37
2019-02-10T12:01:41.758Z,9.38
2019-02-10T12:04:08.438Z,9.44
2019-02-10T12:06:35.085Z,9.33
2019-02-10T12:09:01.717Z,9.40
2019-02-10T12:11:32.700Z,9.32
2019-02-10T12:13:59.356Z,9.41
2019-02-10T12:16:26.159Z,9.50
2019-02-10T12:18:52.788Z,9.55
2019-02-10T12:21:19.470Z,9.66
2019-02-10T12:23:46.218Z,9.74
2019-02-10T12:26:12.972Z,9.58
2019-02-10T12:28:39.631Z,9.62
2019-02-10T12:31:06.264Z,9.60
2019-02-10T12:33:32.825Z,9.57
2019-02-10T12:35:59.446Z,9.45
2019-02-10T12:38:29.283Z,9.42
2019-02-10T12:40:55.922Z,9.35
2019-02-10T12:43:22.476Z,9.41
2019-02-10T12:45:49.123Z,9.53
2019-02-10T12:48:15.763Z,9.60
2019-02-10T12:50:42.382Z,9.47
2019-02-10T12:53:08.997Z,9.50
2019-02-10T12:55:35.564Z,9.66
2019-02-10T12:58:02.189Z,9.55
2019-02-10T13:00:28.859Z,9.60
2019-02-10T13:02:55.473Z,9.53
2019-02-10T13:05:22.159Z,9.37
2019-02-10T13:07:48.737Z,9.40
2019-02-10T13:10:17.802Z,9.48
2019-02-10T13:12:44.032Z,9.58
2019-02-10T13:15:11.825Z,9.55
2019-02-10T13:17:38.572Z,9.56
2019-02-10T13:20:08.966Z,9.59
2019-02-10T13:22:35.560Z,9.68
2019-02-10T13:25:05.129Z,9.65
2019-02-10T13:27:31.745Z,9.47
2019-02-10T13:29:58.426Z,9.62
2019-02-10T13:32:25.035Z,9.64
2019-02-10T13:34:51.632Z,9.72
2019-02-10T13:37:18.318Z,9.54
2019-02-10T13:39:44.916Z,9.62
2019-02-10T13:42:11.495Z,9.47
2019-02-10T13:44:38.203Z,9.53
2019-02-10T13:47:04.929Z,9.55
2019-02-10T13:49:31.475Z,9.59
2019-02-10T13:51:58.046Z,9.75
2019-02-10T13:54:24.673Z,9.59
2019-02-10T13:56:52.518Z,9.36
2019-02-10T13:59:19.141Z,9.12
2019-02-10T14:01:45.729Z,9.22
2019-02-10T14:04:12.378Z,9.20
2019-02-10T14:06:39.081Z,9.07
2019-02-10T14:09:06.330Z,9.18
2019-02-10T14:11:33.145Z,8.99
2019-02-10T14:13:59.836Z,9.09
2019-02-10T14:16:26.490Z,9.03
2019-02-10T14:18:53.297Z,9.16
2019-02-10T14:21:20.081Z,8.98
2019-02-10T14:23:46.651Z,9.04
2019-02-10T14:26:13.261Z,8.73
2019-02-10T14:28:39.929Z,8.77
2019-02-10T14:31:06.599Z,8.83
2019-02-10T14:33:38.743Z,8.61
2019-02-10T14:36:02.226Z,8.68
2019-02-10T14:38:36.143Z,8.57
2019-02-10T14:40:57.393Z,8.40
2019-02-10T14:43:24.103Z,8.29
2019-02-10T14:45:50.662Z,8.07
2019-02-10T14:48:17.238Z,8.12
2019-02-10T14:50:43.871Z,8.04
2019-02-10T14:53:10.610Z,7.93
2019-02-10T14:55:37.206Z,7.84
2019-02-10T14:58:03.778Z,7.85
2019-02-10T15:00:30.389Z,7.78
2019-02-10T15:02:57.065Z,7.54
2019-02-10T15:05:23.663Z,7.57
2019-02-10T15:07:50.328Z,7.45
2019-02-10T15:10:20.874Z,7.46
2019-02-10T15:12:47.537Z,7.64
2019-02-10T15:15:14.117Z,7.52
2019-02-10T15:17:40.837Z,7.54
2019-02-10T15:20:09.677Z,7.55
2019-02-10T15:22:36.271Z,7.67
2019-02-10T15:25:07.816Z,7.60
2019-02-10T15:27:35.639Z,7.58
2019-02-10T15:30:07.116Z,7.48
2019-02-10T15:32:33.707Z,7.47
2019-02-10T15:35:00.349Z,7.43
2019-02-10T15:37:26.967Z,7.32
2019-02-10T15:39:53.554Z,7.13
2019-02-10T15:42:20.105Z,7.23
2019-02-10T15:44:46.722Z,7.20
2019-02-10T15:47:13.371Z,7.07
2019-02-10T15:49:40.178Z,7.08
2019-02-10T15:52:06.774Z,7.16
2019-02-10T15:54:33.328Z,7.17
2019-02-10T15:57:01.163Z,7.00
2019-02-10T15:59:27.776Z,6.98
2019-02-10T16:01:54.368Z,6.98
2019-02-10T16:04:22.143Z,6.91
2019-02-10T16:06:48.787Z,6.95
2019-02-10T16:09:15.350Z,6.84
2019-02-10T16:11:41.992Z,6.80
2019-02-10T16:14:09.656Z,6.76
2019-02-10T16:16:36.222Z,6.71
2019-02-10T16:19:02.769Z,6.48
2019-02-10T16:21:29.390Z,6.55
2019-02-10T16:23:55.954Z,6.59
2019-02-10T16:26:22.534Z,6.63
2019-02-10T16:28:49.180Z,6.50
2019-02-10T16:31:15.754Z,6.72
2019-02-10T16:33:42.392Z,6.56
2019-02-10T16:36:09.021Z,6.56
2019-02-10T16:38:35.606Z,6.42
2019-02-10T16:41:06.419Z,6.42
2019-02-10T16:43:30.726Z,6.33
2019-02-10T16:45:57.376Z,6.37
2019-02-10T16:48:23.983Z,6.48
2019-02-10T16:50:50.620Z,6.39
2019-02-10T16:53:17.316Z,6.41
2019-02-10T16:55:44.049Z,6.39
2019-02-10T16:58:10.637Z,6.25
2019-02-10T17:00:37.336Z,6.29
2019-02-10T17:03:04.006Z,6.35
2019-02-10T17:05:30.668Z,6.31
2019-02-10T17:07:57.358Z,6.24
2019-02-10T17:10:23.967Z,6.30
2019-02-10T17:12:50.609Z,6.09
2019-02-10T17:15:17.161Z,6.21
2019-02-10T17:17:43.794Z,6.03
2019-02-10T17:20:11.741Z,6.27
2019-02-10T17:22:39.881Z,6.28
2019-02-10T17:25:11.676Z,6.24
2019-02-10T17:27:38.304Z,6.14
2019-02-10T17:30:10.031Z,6.14
2019-02-10T17:32:36.657Z,6.05
2019-02-10T17:35:07.949Z,6.11
2019-02-10T17:37:34.652Z,6.05
2019-02-10T17:40:01.268Z,5.98
2019-02-10T17:42:27.947Z,5.98
2019-02-10T17:44:54.684Z,5.95
2019-02-10T17:47:21.389Z,5.98
2019-02-10T17:49:48.137Z,6.15
2019-02-10T17:52:14.929Z,6.04
2019-02-10T17:54:42.167Z,6.14
2019-02-10T17:57:08.936Z,6.10
2019-02-10T17:59:35.634Z,6.04
2019-02-10T18:02:02.382Z,6.07
2019-02-10T18:04:37.221Z,5.88
2019-02-10T18:06:57.605Z,5.95
2019-02-10T18:09:24.268Z,5.93
2019-02-10T18:11:50.954Z,5.73
2019-02-10T18:14:19.444Z,5.74
2019-02-10T18:16:47.974Z,5.78
2019-02-10T18:19:16.497Z,5.66
2019-02-10T18:21:45.085Z,5.87
2019-02-10T18:24:15.699Z,5.80
2019-02-10T18:26:44.379Z,5.59
2019-02-10T18:29:14.177Z,5.47
2019-02-10T18:31:42.782Z,5.48
2019-02-10T18:34:11.443Z,5.34
2019-02-10T18:36:40.195Z,5.37
2019-02-10T18:39:08.762Z,5.49
2019-02-10T18:41:39.278Z,5.42
2019-02-10T18:44:10.383Z,5.50
2019-02-10T18:46:39.169Z,5.52
2019-02-10T18:49:07.674Z,5.42
2019-02-10T18:51:38.543Z,5.35
2019-02-10T18:54:07.447Z,5.21
2019-02-10T18:56:36.213Z,5.33
2019-02-10T18:59:05.420Z,5.35
2019-02-10T19:01:33.972Z,5.32
2019-02-10T19:04:02.571Z,5.40
2019-02-10T19:06:31.190Z,5.36
2019-02-10T19:09:03.842Z,5.31
2019-02-10T19:11:30.153Z,5.18
2019-02-10T19:14:01.674Z,5.18
2019-02-10T19:16:31.300Z,5.15
2019-02-10T19:18:57.907Z,5.16
2019-02-10T19:21:26.551Z,5.40
2019-02-10T19:23:55.459Z,5.36
2019-02-10T19:26:24.401Z,5.35
2019-02-10T19:29:52.113Z,5.14
2019-02-10T19:32:20.921Z,5.16
2019-02-10T19:34:49.734Z,5.15
2019-02-10T19:37:18.559Z,5.15
2019-02-10T19:39:47.490Z,5.16
2019-02-10T19:42:16.600Z,5.07
2019-02-10T19:44:45.608Z,5.17
2019-02-10T19:47:14.448Z,5.25
2019-02-10T19:49:43.425Z,5.14
2019-02-10T19:52:12.309Z,5.16
2019-02-10T19:54:41.304Z,5.27
2019-02-10T19:57:10.341Z,5.39
2019-02-10T19:59:39.422Z,5.33
2019-02-10T20:02:08.582Z,5.32
2019-02-10T20:04:37.811Z,5.15
2019-02-10T20:08:03.495Z,5.30
2019-02-10T20:10:32.628Z,5.25
2019-02-10T20:13:01.487Z,5.33
2019-02-10T20:15:30.415Z,5.35
2019-02-10T20:18:00.479Z,5.29
2019-02-10T20:20:29.407Z,5.36
2019-02-10T20:22:56.663Z,5.35
2019-02-10T20:25:25.553Z,5.33
2019-02-10T20:27:54.383Z,5.30
2019-02-10T20:30:23.308Z,5.41
2019-02-10T20:32:54.162Z,5.40
2019-02-10T20:35:23.184Z,5.24
2019-02-10T20:37:52.005Z,5.32
2019-02-10T20:40:20.840Z,5.23
2019-02-10T20:42:49.826Z,5.14
2019-02-10T20:45:18.810Z,5.24
2019-02-10T20:47:47.746Z,5.16
2019-02-10T20:50:16.759Z,5.19
2019-02-10T20:52:46.514Z,5.16
2019-02-10T20:55:15.824Z,5.14
2019-02-10T20:57:44.624Z,5.23
2019-02-10T21:00:13.509Z,5.14
2019-02-10T21:02:42.447Z,5.14
2019-02-10T21:05:11.931Z,5.10
2019-02-10T21:07:40.883Z,4.97
2019-02-10T21:10:10.772Z,5.14
2019-02-10T21:12:40.108Z,5.14
2019-02-10T21:15:10.671Z,5.14
2019-02-10T21:17:39.667Z,5.07
2019-02-10T21:20:10.973Z,5.03
2019-02-10T21:22:39.835Z,5.05
2019-02-10T21:25:09.413Z,4.99
2019-02-10T21:27:38.362Z,5.01
2019-02-10T21:30:11.262Z,4.88
2019-02-10T21:32:40.290Z,4.85
2019-02-10T21:35:09.161Z,4.82
2019-02-10T21:37:38.094Z,4.91
2019-02-10T21:40:08.864Z,4.78
2019-02-10T21:42:37.794Z,4.89
2019-02-10T21:45:08.661Z,4.70
2019-02-10T21:47:37.603Z,4.93
2019-02-10T21:50:06.613Z,4.82
2019-02-10T21:52:33.750Z,4.75
2019-02-10T21:55:01.292Z,4.89
2019-02-10T21:57:30.080Z,4.86
2019-02-10T21:59:57.860Z,4.84
2019-02-10T22:02:26.051Z,4.74
2019-02-10T22:04:52.926Z,4.88
2019-02-10T22:07:20.282Z,4.83
2019-02-10T22:09:47.338Z,4.91
2019-02-10T22:12:14.235Z,4.93
2019-02-10T22:14:41.866Z,4.96
2019-02-10T22:17:09.103Z,5.06
2019-02-10T22:19:37.342Z,4.95
2019-02-10T22:22:04.527Z,4.79
2019-02-10T22:24:31.473Z,4.92
2019-02-10T22:26:58.949Z,4.94
2019-02-10T22:29:26.089Z,4.71
2019-02-10T22:31:52.972Z,4.84
2019-02-10T22:34:20.380Z,4.80
2019-02-10T22:36:49.732Z,4.88
2019-02-10T22:39:16.838Z,4.94
2019-02-10T22:41:43.847Z,4.93
2019-02-10T22:44:10.805Z,4.70
2019-02-10T22:46:37.785Z,4.76
2019-02-10T22:49:05.016Z,4.91
2019-02-10T22:51:32.033Z,4.73
2019-02-10T22:53:58.893Z,4.88
2019-02-10T22:56:26.259Z,4.68
2019-02-10T22:58:53.170Z,4.68
2019-02-10T23:01:20.059Z,4.77
2019-02-10T23:03:46.961Z,4.87
2019-02-10T23:06:13.919Z,4.94
2019-02-10T23:08:40.916Z,4.77
2019-02-10T23:11:07.887Z,4.86
2019-02-10T23:13:34.963Z,4.77
2019-02-10T23:16:02.034Z,4.95
2019-02-10T23:18:28.910Z,4.83
2019-02-10T23:20:55.885Z,4.73
2019-02-10T23:23:22.742Z,4.78
2019-02-10T23:25:49.944Z,4.76
2019-02-10T23:28:20.026Z,4.79
2019-02-10T23:30:46.893Z,4.75
2019-02-10T23:33:13.885Z,4.76
2019-02-10T23:35:40.893Z,4.78
2019-02-10T23:38:07.878Z,4.49
2019-02-10T23:40:35.009Z,4.65
2019-02-10T23:43:02.487Z,4.78
2019-02-10T23:45:29.823Z,4.75
2019-02-10T23:47:56.734Z,4.92
2019-02-10T23:50:23.683Z,4.84
2019-02-10T23:52:50.612Z,4.88
2019-02-10T23:55:17.645Z,5.09
2019-02-10T23:57:44.777Z,5.11
